sensor_id;sensor_type;location;lat;lon;timestamp;P1;durP1;ratioP1;P2;durP2;ratioP2
17564;SDS011;62994;52.126;5.596;2023-01-08T00:01:31;2.92;;;2.83;;
17564;SDS011;62994;52.126;5.596;2023-01-08T00:03:58;3.28;;;2.40;;
17564;SDS011;62994;52.126;5.596;2023-01-08T00:06:26;3.00;;;2.72;;
17564;SDS011;62994;52.126;5.596;2023-01-08T00:08:53;3.05;;;2.70;;
17564;SDS011;62994;52.126;5.596;2023-01-08T00:11:20;2.75;;;2.45;;
17564;SDS011;62994;52.126;5.596;2023-01-08T00:13:47;2.83;;;2.63;;
17564;SDS011;62994;52.126;5.596;2023-01-08T00:16:15;2.95;;;2.75;;
17564;SDS011;62994;52.126;5.596;2023-01-08T00:18:43;3.47;;;3.10;;
17564;SDS011;62994;52.126;5.596;2023-01-08T00:21:11;2.55;;;2.45;;
17564;SDS011;62994;52.126;5.596;2023-01-08T00:23:38;2.35;;;2.25;;
17564;SDS011;62994;52.126;5.596;2023-01-08T00:26:06;4.03;;;2.55;;
17564;SDS011;62994;52.126;5.596;2023-01-08T00:28:35;2.00;;;1.90;;
17564;SDS011;62994;52.126;5.596;2023-01-08T00:31:02;2.25;;;2.15;;
17564;SDS011;62994;52.126;5.596;2023-01-08T00:33:32;3.45;;;2.00;;
17564;SDS011;62994;52.126;5.596;2023-01-08T00:35:59;2.75;;;1.83;;
17564;SDS011;62994;52.126;5.596;2023-01-08T00:38:26;3.38;;;1.52;;
17564;SDS011;62994;52.126;5.596;2023-01-08T00:40:54;1.42;;;1.23;;
17564;SDS011;62994;52.126;5.596;2023-01-08T00:43:21;1.77;;;1.13;;
17564;SDS011;62994;52.126;5.596;2023-01-08T00:45:48;1.65;;;1.55;;
17564;SDS011;62994;52.126;5.596;2023-01-08T00:48:17;1.88;;;1.20;;
17564;SDS011;62994;52.126;5.596;2023-01-08T00:50:47;2.33;;;1.40;;
17564;SDS011;62994;52.126;5.596;2023-01-08T00:53:14;2.05;;;1.63;;
17564;SDS011;62994;52.126;5.596;2023-01-08T00:55:42;2.22;;;1.70;;
17564;SDS011;62994;52.126;5.596;2023-01-08T00:58:09;1.73;;;1.63;;
17564;SDS011;62994;52.126;5.596;2023-01-08T01:00:36;1.85;;;1.70;;
17564;SDS011;62994;52.126;5.596;2023-01-08T01:03:03;1.80;;;1.70;;
17564;SDS011;62994;52.126;5.596;2023-01-08T01:05:30;5.30;;;1.92;;
17564;SDS011;62994;52.126;5.596;2023-01-08T01:07:58;4.72;;;2.67;;
17564;SDS011;62994;52.126;5.596;2023-01-08T01:10:25;3.03;;;2.22;;
17564;SDS011;62994;52.126;5.596;2023-01-08T01:12:52;5.38;;;2.25;;
17564;SDS011;62994;52.126;5.596;2023-01-08T01:15:19;2.65;;;2.22;;
17564;SDS011;62994;52.126;5.596;2023-01-08T01:17:46;2.67;;;2.40;;
17564;SDS011;62994;52.126;5.596;2023-01-08T01:20:14;2.53;;;2.30;;
17564;SDS011;62994;52.126;5.596;2023-01-08T01:22:42;3.22;;;3.03;;
17564;SDS011;62994;52.126;5.596;2023-01-08T01:25:10;3.65;;;2.20;;
17564;SDS011;62994;52.126;5.596;2023-01-08T01:27:37;4.03;;;2.28;;
17564;SDS011;62994;52.126;5.596;2023-01-08T01:30:05;2.40;;;2.20;;
17564;SDS011;62994;52.126;5.596;2023-01-08T01:32:33;2.40;;;2.05;;
17564;SDS011;62994;52.126;5.596;2023-01-08T01:35:00;2.58;;;2.38;;
17564;SDS011;62994;52.126;5.596;2023-01-08T01:37:27;2.45;;;2.30;;
17564;SDS011;62994;52.126;5.596;2023-01-08T01:39:54;2.38;;;2.10;;
17564;SDS011;62994;52.126;5.596;2023-01-08T01:42:23;5.32;;;2.15;;
17564;SDS011;62994;52.126;5.596;2023-01-08T01:45:10;3.47;;;2.35;;
17564;SDS011;62994;52.126;5.596;2023-01-08T01:47:41;2.55;;;2.10;;
17564;SDS011;62994;52.126;5.596;2023-01-08T01:50:11;3.47;;;2.60;;
17564;SDS011;62994;52.126;5.596;2023-01-08T01:52:41;4.57;;;2.72;;
17564;SDS011;62994;52.126;5.596;2023-01-08T01:55:11;3.17;;;2.40;;
17564;SDS011;62994;52.126;5.596;2023-01-08T01:57:40;3.70;;;2.30;;
17564;SDS011;62994;52.126;5.596;2023-01-08T02:00:11;2.75;;;2.50;;
17564;SDS011;62994;52.126;5.596;2023-01-08T02:02:38;2.40;;;2.20;;
17564;SDS011;62994;52.126;5.596;2023-01-08T02:05:05;2.38;;;2.17;;
17564;SDS011;62994;52.126;5.596;2023-01-08T02:07:35;2.88;;;2.42;;
17564;SDS011;62994;52.126;5.596;2023-01-08T02:10:09;2.22;;;1.98;;
17564;SDS011;62994;52.126;5.596;2023-01-08T02:12:44;1.92;;;1.83;;
17564;SDS011;62994;52.126;5.596;2023-01-08T02:15:18;1.77;;;1.67;;
17564;SDS011;62994;52.126;5.596;2023-01-08T02:17:48;1.90;;;1.60;;
17564;SDS011;62994;52.126;5.596;2023-01-08T02:20:20;1.63;;;1.52;;
17564;SDS011;62994;52.126;5.596;2023-01-08T02:22:53;2.55;;;1.40;;
17564;SDS011;62994;52.126;5.596;2023-01-08T02:25:54;2.55;;;1.60;;
17564;SDS011;62994;52.126;5.596;2023-01-08T02:28:31;1.80;;;1.70;;
17564;SDS011;62994;52.126;5.596;2023-01-08T02:31:03;1.85;;;1.65;;
17564;SDS011;62994;52.126;5.596;2023-01-08T02:33:31;2.00;;;1.70;;
17564;SDS011;62994;52.126;5.596;2023-01-08T02:36:12;2.20;;;1.70;;
17564;SDS011;62994;52.126;5.596;2023-01-08T02:39:00;2.38;;;1.70;;
17564;SDS011;62994;52.126;5.596;2023-01-08T02:41:39;1.77;;;1.60;;
17564;SDS011;62994;52.126;5.596;2023-01-08T02:44:28;2.90;;;1.70;;
17564;SDS011;62994;52.126;5.596;2023-01-08T02:47:03;1.70;;;1.60;;
17564;SDS011;62994;52.126;5.596;2023-01-08T02:49:34;1.65;;;1.55;;
17564;SDS011;62994;52.126;5.596;2023-01-08T02:52:06;3.67;;;1.92;;
17564;SDS011;62994;52.126;5.596;2023-01-08T02:54:37;2.13;;;1.77;;
17564;SDS011;62994;52.126;5.596;2023-01-08T02:57:09;2.20;;;1.65;;
17564;SDS011;62994;52.126;5.596;2023-01-08T02:59:37;1.58;;;1.30;;
17564;SDS011;62994;52.126;5.596;2023-01-08T03:02:06;1.60;;;1.50;;
17564;SDS011;62994;52.126;5.596;2023-01-08T03:04:35;1.90;;;1.55;;
17564;SDS011;62994;52.126;5.596;2023-01-08T03:07:05;2.13;;;1.40;;
17564;SDS011;62994;52.126;5.596;2023-01-08T03:09:32;2.50;;;1.30;;
17564;SDS011;62994;52.126;5.596;2023-01-08T03:12:01;1.95;;;1.58;;
17564;SDS011;62994;52.126;5.596;2023-01-08T03:14:35;2.70;;;1.77;;
17564;SDS011;62994;52.126;5.596;2023-01-08T03:17:09;2.15;;;1.73;;
17564;SDS011;62994;52.126;5.596;2023-01-08T03:19:43;1.67;;;1.58;;
17564;SDS011;62994;52.126;5.596;2023-01-08T03:22:15;1.90;;;1.80;;
17564;SDS011;62994;52.126;5.596;2023-01-08T03:24:45;1.77;;;1.67;;
17564;SDS011;62994;52.126;5.596;2023-01-08T03:27:15;2.13;;;2.00;;
17564;SDS011;62994;52.126;5.596;2023-01-08T03:29:46;3.15;;;2.08;;
17564;SDS011;62994;52.126;5.596;2023-01-08T03:32:16;2.45;;;2.25;;
17564;SDS011;62994;52.126;5.596;2023-01-08T03:34:45;3.42;;;1.92;;
17564;SDS011;62994;52.126;5.596;2023-01-08T03:37:15;2.30;;;2.05;;
17564;SDS011;62994;52.126;5.596;2023-01-08T03:39:55;2.67;;;2.08;;
17564;SDS011;62994;52.126;5.596;2023-01-08T03:42:24;2.83;;;2.17;;
17564;SDS011;62994;52.126;5.596;2023-01-08T03:44:55;2.30;;;2.03;;
17564;SDS011;62994;52.126;5.596;2023-01-08T03:47:22;2.50;;;2.30;;
17564;SDS011;62994;52.126;5.596;2023-01-08T03:49:50;2.10;;;2.00;;
17564;SDS011;62994;52.126;5.596;2023-01-08T03:52:21;2.33;;;2.20;;
17564;SDS011;62994;52.126;5.596;2023-01-08T03:54:48;2.05;;;1.95;;
17564;SDS011;62994;52.126;5.596;2023-01-08T03:57:16;3.05;;;2.55;;
17564;SDS011;62994;52.126;5.596;2023-01-08T03:59:43;4.60;;;2.70;;
17564;SDS011;62994;52.126;5.596;2023-01-08T04:02:11;2.38;;;2.20;;
17564;SDS011;62994;52.126;5.596;2023-01-08T04:04:38;2.72;;;2.08;;
17564;SDS011;62994;52.126;5.596;2023-01-08T04:07:06;6.20;;;2.20;;
17564;SDS011;62994;52.126;5.596;2023-01-08T04:09:33;2.35;;;1.70;;
17564;SDS011;62994;52.126;5.596;2023-01-08T04:12:00;2.90;;;1.73;;
17564;SDS011;62994;52.126;5.596;2023-01-08T04:14:27;2.92;;;1.50;;
17564;SDS011;62994;52.126;5.596;2023-01-08T04:16:54;3.45;;;1.30;;
17564;SDS011;62994;52.126;5.596;2023-01-08T04:19:23;7.05;;;1.55;;
17564;SDS011;62994;52.126;5.596;2023-01-08T04:21:49;2.33;;;1.13;;
17564;SDS011;62994;52.126;5.596;2023-01-08T04:24:17;1.08;;;1.00;;
17564;SDS011;62994;52.126;5.596;2023-01-08T04:26:44;2.85;;;1.00;;
17564;SDS011;62994;52.126;5.596;2023-01-08T04:29:12;1.52;;;1.40;;
17564;SDS011;62994;52.126;5.596;2023-01-08T04:31:39;6.28;;;1.05;;
17564;SDS011;62994;52.126;5.596;2023-01-08T04:34:06;2.83;;;1.60;;
17564;SDS011;62994;52.126;5.596;2023-01-08T04:36:34;1.80;;;1.10;;
17564;SDS011;62994;52.126;5.596;2023-01-08T04:39:01;1.80;;;0.80;;
17564;SDS011;62994;52.126;5.596;2023-01-08T04:41:28;3.92;;;1.25;;
17564;SDS011;62994;52.126;5.596;2023-01-08T04:43:55;1.67;;;0.98;;
17564;SDS011;62994;52.126;5.596;2023-01-08T04:46:23;3.22;;;0.93;;
17564;SDS011;62994;52.126;5.596;2023-01-08T04:48:49;1.35;;;0.90;;
17564;SDS011;62994;52.126;5.596;2023-01-08T04:51:16;1.60;;;1.15;;
17564;SDS011;62994;52.126;5.596;2023-01-08T04:53:45;2.50;;;0.90;;
17564;SDS011;62994;52.126;5.596;2023-01-08T04:56:12;1.83;;;0.98;;
17564;SDS011;62994;52.126;5.596;2023-01-08T04:58:39;2.95;;;1.10;;
17564;SDS011;62994;52.126;5.596;2023-01-08T05:01:10;0.98;;;0.85;;
17564;SDS011;62994;52.126;5.596;2023-01-08T05:03:37;1.05;;;1.00;;
17564;SDS011;62994;52.126;5.596;2023-01-08T05:06:05;1.95;;;0.90;;
17564;SDS011;62994;52.126;5.596;2023-01-08T05:08:32;1.02;;;0.93;;
17564;SDS011;62994;52.126;5.596;2023-01-08T05:11:01;3.00;;;0.98;;
17564;SDS011;62994;52.126;5.596;2023-01-08T05:13:29;2.35;;;0.88;;
17564;SDS011;62994;52.126;5.596;2023-01-08T05:15:57;1.48;;;1.05;;
17564;SDS011;62994;52.126;5.596;2023-01-08T05:18:25;2.78;;;0.82;;
17564;SDS011;62994;52.126;5.596;2023-01-08T05:20:52;4.90;;;1.05;;
17564;SDS011;62994;52.126;5.596;2023-01-08T05:23:19;4.55;;;0.80;;
17564;SDS011;62994;52.126;5.596;2023-01-08T05:25:46;1.02;;;0.90;;
17564;SDS011;62994;52.126;5.596;2023-01-08T05:28:14;1.52;;;0.80;;
17564;SDS011;62994;52.126;5.596;2023-01-08T05:30:41;4.00;;;1.60;;
17564;SDS011;62994;52.126;5.596;2023-01-08T05:33:08;1.83;;;1.10;;
17564;SDS011;62994;52.126;5.596;2023-01-08T05:35:39;2.17;;;0.90;;
17564;SDS011;62994;52.126;5.596;2023-01-08T05:38:06;2.90;;;1.20;;
17564;SDS011;62994;52.126;5.596;2023-01-08T05:40:33;1.10;;;1.00;;
17564;SDS011;62994;52.126;5.596;2023-01-08T05:43:00;2.67;;;1.30;;
17564;SDS011;62994;52.126;5.596;2023-01-08T05:45:30;2.85;;;1.20;;
17564;SDS011;62994;52.126;5.596;2023-01-08T05:47:57;2.72;;;1.13;;
17564;SDS011;62994;52.126;5.596;2023-01-08T05:50:25;6.40;;;1.08;;
17564;SDS011;62994;52.126;5.596;2023-01-08T05:52:52;2.15;;;0.90;;
17564;SDS011;62994;52.126;5.596;2023-01-08T05:55:19;1.63;;;1.02;;
17564;SDS011;62994;52.126;5.596;2023-01-08T05:57:46;3.00;;;1.30;;
17564;SDS011;62994;52.126;5.596;2023-01-08T06:00:14;2.08;;;1.00;;
17564;SDS011;62994;52.126;5.596;2023-01-08T06:02:45;3.78;;;1.10;;
17564;SDS011;62994;52.126;5.596;2023-01-08T06:05:13;1.30;;;1.20;;
17564;SDS011;62994;52.126;5.596;2023-01-08T06:07:40;2.10;;;1.00;;
17564;SDS011;62994;52.126;5.596;2023-01-08T06:10:07;1.42;;;0.95;;
17564;SDS011;62994;52.126;5.596;2023-01-08T06:12:34;6.28;;;1.30;;
17564;SDS011;62994;52.126;5.596;2023-01-08T06:15:01;3.35;;;1.20;;
17564;SDS011;62994;52.126;5.596;2023-01-08T06:17:29;4.45;;;1.02;;
17564;SDS011;62994;52.126;5.596;2023-01-08T06:19:57;2.35;;;1.00;;
17564;SDS011;62994;52.126;5.596;2023-01-08T06:22:24;2.72;;;1.38;;
17564;SDS011;62994;52.126;5.596;2023-01-08T06:24:51;4.57;;;1.23;;
17564;SDS011;62994;52.126;5.596;2023-01-08T06:27:18;1.98;;;1.42;;
17564;SDS011;62994;52.126;5.596;2023-01-08T06:29:45;2.45;;;1.10;;
17564;SDS011;62994;52.126;5.596;2023-01-08T06:32:12;3.38;;;1.45;;
17564;SDS011;62994;52.126;5.596;2023-01-08T06:34:39;4.70;;;1.23;;
17564;SDS011;62994;52.126;5.596;2023-01-08T06:37:07;4.25;;;1.40;;
17564;SDS011;62994;52.126;5.596;2023-01-08T06:39:35;4.43;;;1.50;;
17564;SDS011;62994;52.126;5.596;2023-01-08T06:42:02;3.78;;;1.67;;
17564;SDS011;62994;52.126;5.596;2023-01-08T06:44:29;1.30;;;0.80;;
17564;SDS011;62994;52.126;5.596;2023-01-08T06:46:56;3.65;;;1.17;;
17564;SDS011;62994;52.126;5.596;2023-01-08T06:49:23;4.07;;;1.50;;
17564;SDS011;62994;52.126;5.596;2023-01-08T06:51:49;3.22;;;1.20;;
17564;SDS011;62994;52.126;5.596;2023-01-08T06:54:18;1.70;;;1.13;;
17564;SDS011;62994;52.126;5.596;2023-01-08T06:56:47;2.13;;;1.30;;
17564;SDS011;62994;52.126;5.596;2023-01-08T06:59:14;5.57;;;1.42;;
17564;SDS011;62994;52.126;5.596;2023-01-08T07:01:41;3.08;;;1.10;;
17564;SDS011;62994;52.126;5.596;2023-01-08T07:04:07;2.95;;;1.67;;
17564;SDS011;62994;52.126;5.596;2023-01-08T07:06:34;2.83;;;1.35;;
17564;SDS011;62994;52.126;5.596;2023-01-08T07:09:01;2.03;;;1.10;;
17564;SDS011;62994;52.126;5.596;2023-01-08T07:11:30;2.95;;;1.10;;
17564;SDS011;62994;52.126;5.596;2023-01-08T07:13:57;1.17;;;1.08;;
17564;SDS011;62994;52.126;5.596;2023-01-08T07:16:26;1.13;;;0.95;;
17564;SDS011;62994;52.126;5.596;2023-01-08T07:18:53;2.70;;;1.20;;
17564;SDS011;62994;52.126;5.596;2023-01-08T07:21:25;3.53;;;1.50;;
17564;SDS011;62994;52.126;5.596;2023-01-08T07:23:53;2.33;;;1.52;;
17564;SDS011;62994;52.126;5.596;2023-01-08T07:26:24;4.40;;;1.00;;
17564;SDS011;62994;52.126;5.596;2023-01-08T07:28:53;2.67;;;1.08;;
17564;SDS011;62994;52.126;5.596;2023-01-08T07:31:23;1.83;;;1.50;;
17564;SDS011;62994;52.126;5.596;2023-01-08T07:33:50;5.13;;;1.80;;
17564;SDS011;62994;52.126;5.596;2023-01-08T07:36:17;2.70;;;1.10;;
17564;SDS011;62994;52.126;5.596;2023-01-08T07:38:46;3.50;;;1.27;;
17564;SDS011;62994;52.126;5.596;2023-01-08T07:41:14;2.05;;;1.23;;
17564;SDS011;62994;52.126;5.596;2023-01-08T07:43:41;2.58;;;1.27;;
17564;SDS011;62994;52.126;5.596;2023-01-08T07:46:09;3.35;;;1.27;;
17564;SDS011;62994;52.126;5.596;2023-01-08T07:48:36;4.93;;;1.30;;
17564;SDS011;62994;52.126;5.596;2023-01-08T07:51:04;1.50;;;0.90;;
17564;SDS011;62994;52.126;5.596;2023-01-08T07:53:32;7.80;;;1.50;;
17564;SDS011;62994;52.126;5.596;2023-01-08T07:55:59;4.90;;;1.88;;
17564;SDS011;62994;52.126;5.596;2023-01-08T07:58:27;2.80;;;1.50;;
17564;SDS011;62994;52.126;5.596;2023-01-08T08:00:54;5.75;;;1.80;;
17564;SDS011;62994;52.126;5.596;2023-01-08T08:03:22;5.10;;;1.77;;
17564;SDS011;62994;52.126;5.596;2023-01-08T08:05:50;3.70;;;1.77;;
17564;SDS011;62994;52.126;5.596;2023-01-08T08:08:17;5.57;;;1.90;;
17564;SDS011;62994;52.126;5.596;2023-01-08T08:10:45;2.45;;;1.55;;
17564;SDS011;62994;52.126;5.596;2023-01-08T08:13:12;4.25;;;1.60;;
17564;SDS011;62994;52.126;5.596;2023-01-08T08:15:39;9.23;;;2.20;;
17564;SDS011;62994;52.126;5.596;2023-01-08T08:18:06;3.10;;;1.50;;
17564;SDS011;62994;52.126;5.596;2023-01-08T08:20:44;1.73;;;0.98;;
17564;SDS011;62994;52.126;5.596;2023-01-08T08:23:12;1.90;;;1.70;;
17564;SDS011;62994;52.126;5.596;2023-01-08T08:25:40;3.47;;;1.52;;
17564;SDS011;62994;52.126;5.596;2023-01-08T08:28:08;1.95;;;1.50;;
17564;SDS011;62994;52.126;5.596;2023-01-08T08:30:38;4.25;;;1.63;;
17564;SDS011;62994;52.126;5.596;2023-01-08T08:33:05;2.88;;;1.52;;
17564;SDS011;62994;52.126;5.596;2023-01-08T08:35:32;3.22;;;1.60;;
17564;SDS011;62994;52.126;5.596;2023-01-08T08:38:01;6.22;;;1.38;;
17564;SDS011;62994;52.126;5.596;2023-01-08T08:40:29;4.00;;;1.55;;
17564;SDS011;62994;52.126;5.596;2023-01-08T08:42:57;5.93;;;1.65;;
17564;SDS011;62994;52.126;5.596;2023-01-08T08:45:30;5.80;;;1.63;;
17564;SDS011;62994;52.126;5.596;2023-01-08T08:47:57;3.90;;;1.40;;
17564;SDS011;62994;52.126;5.596;2023-01-08T08:50:24;7.53;;;1.73;;
17564;SDS011;62994;52.126;5.596;2023-01-08T08:52:51;5.00;;;1.65;;
17564;SDS011;62994;52.126;5.596;2023-01-08T08:55:29;5.03;;;1.30;;
17564;SDS011;62994;52.126;5.596;2023-01-08T08:58:00;2.65;;;1.50;;
17564;SDS011;62994;52.126;5.596;2023-01-08T09:00:29;6.93;;;1.58;;
17564;SDS011;62994;52.126;5.596;2023-01-08T09:02:57;3.33;;;1.65;;
17564;SDS011;62994;52.126;5.596;2023-01-08T09:05:24;7.05;;;1.58;;
17564;SDS011;62994;52.126;5.596;2023-01-08T09:07:52;5.05;;;1.70;;
17564;SDS011;62994;52.126;5.596;2023-01-08T09:10:22;8.25;;;1.73;;
17564;SDS011;62994;52.126;5.596;2023-01-08T09:12:52;6.00;;;1.60;;
17564;SDS011;62994;52.126;5.596;2023-01-08T09:15:20;6.90;;;1.63;;
17564;SDS011;62994;52.126;5.596;2023-01-08T09:17:51;5.90;;;1.40;;
17564;SDS011;62994;52.126;5.596;2023-01-08T09:20:20;8.35;;;1.65;;
17564;SDS011;62994;52.126;5.596;2023-01-08T09:22:47;7.97;;;1.73;;
17564;SDS011;62994;52.126;5.596;2023-01-08T09:25:19;4.78;;;1.60;;
17564;SDS011;62994;52.126;5.596;2023-01-08T09:27:47;4.47;;;2.05;;
17564;SDS011;62994;52.126;5.596;2023-01-08T09:30:15;6.25;;;1.70;;
17564;SDS011;62994;52.126;5.596;2023-01-08T09:32:43;3.05;;;1.63;;
17564;SDS011;62994;52.126;5.596;2023-01-08T09:35:10;4.95;;;1.65;;
17564;SDS011;62994;52.126;5.596;2023-01-08T09:37:37;4.65;;;1.50;;
17564;SDS011;62994;52.126;5.596;2023-01-08T09:40:08;6.57;;;1.65;;
17564;SDS011;62994;52.126;5.596;2023-01-08T09:42:40;3.20;;;1.38;;
17564;SDS011;62994;52.126;5.596;2023-01-08T09:45:07;5.70;;;1.50;;
17564;SDS011;62994;52.126;5.596;2023-01-08T09:47:49;5.75;;;1.40;;
17564;SDS011;62994;52.126;5.596;2023-01-08T09:50:18;5.28;;;2.00;;
17564;SDS011;62994;52.126;5.596;2023-01-08T09:52:47;4.13;;;1.73;;
17564;SDS011;62994;52.126;5.596;2023-01-08T09:55:15;5.43;;;1.45;;
17564;SDS011;62994;52.126;5.596;2023-01-08T09:57:42;4.88;;;1.58;;
17564;SDS011;62994;52.126;5.596;2023-01-08T10:00:12;18.05;;;2.47;;
17564;SDS011;62994;52.126;5.596;2023-01-08T10:02:41;2.80;;;1.60;;
17564;SDS011;62994;52.126;5.596;2023-01-08T10:05:12;4.95;;;1.90;;
17564;SDS011;62994;52.126;5.596;2023-01-08T10:07:40;7.00;;;1.70;;
17564;SDS011;62994;52.126;5.596;2023-01-08T10:12:42;6.22;;;2.05;;
17564;SDS011;62994;52.126;5.596;2023-01-08T10:15:11;4.72;;;2.08;;
17564;SDS011;62994;52.126;5.596;2023-01-08T10:17:41;9.05;;;2.20;;
17564;SDS011;62994;52.126;5.596;2023-01-08T10:20:14;9.43;;;2.00;;
17564;SDS011;62994;52.126;5.596;2023-01-08T10:22:42;6.57;;;2.30;;
17564;SDS011;62994;52.126;5.596;2023-01-08T10:25:10;3.47;;;1.75;;
17564;SDS011;62994;52.126;5.596;2023-01-08T10:27:45;5.05;;;2.35;;
17564;SDS011;62994;52.126;5.596;2023-01-08T10:30:14;4.63;;;1.70;;
17564;SDS011;62994;52.126;5.596;2023-01-08T10:32:46;6.68;;;1.77;;
17564;SDS011;62994;52.126;5.596;2023-01-08T10:35:17;3.15;;;2.03;;
17564;SDS011;62994;52.126;5.596;2023-01-08T10:37:47;6.32;;;2.03;;
17564;SDS011;62994;52.126;5.596;2023-01-08T10:40:25;4.90;;;2.20;;
17564;SDS011;62994;52.126;5.596;2023-01-08T10:42:55;5.55;;;1.77;;
17564;SDS011;62994;52.126;5.596;2023-01-08T10:45:30;7.10;;;2.10;;
17564;SDS011;62994;52.126;5.596;2023-01-08T10:47:59;5.60;;;2.30;;
17564;SDS011;62994;52.126;5.596;2023-01-08T10:50:31;2.28;;;1.50;;
17564;SDS011;62994;52.126;5.596;2023-01-08T10:53:00;6.05;;;1.75;;
17564;SDS011;62994;52.126;5.596;2023-01-08T10:55:29;3.70;;;1.60;;
17564;SDS011;62994;52.126;5.596;2023-01-08T10:57:58;5.22;;;1.90;;
17564;SDS011;62994;52.126;5.596;2023-01-08T11:00:26;9.23;;;2.35;;
17564;SDS011;62994;52.126;5.596;2023-01-08T11:02:55;2.65;;;1.63;;
17564;SDS011;62994;52.126;5.596;2023-01-08T11:05:30;4.03;;;1.85;;
17564;SDS011;62994;52.126;5.596;2023-01-08T11:08:05;4.47;;;1.55;;
17564;SDS011;62994;52.126;5.596;2023-01-08T11:10:33;5.18;;;2.00;;
17564;SDS011;62994;52.126;5.596;2023-01-08T11:13:03;4.57;;;1.92;;
17564;SDS011;62994;52.126;5.596;2023-01-08T11:15:33;5.15;;;2.22;;
17564;SDS011;62994;52.126;5.596;2023-01-08T11:18:09;4.20;;;1.77;;
17564;SDS011;62994;52.126;5.596;2023-01-08T11:20:42;4.50;;;1.92;;
17564;SDS011;62994;52.126;5.596;2023-01-08T11:23:14;4.22;;;2.05;;
17564;SDS011;62994;52.126;5.596;2023-01-08T11:25:43;4.10;;;1.83;;
17564;SDS011;62994;52.126;5.596;2023-01-08T11:28:15;5.35;;;1.75;;
17564;SDS011;62994;52.126;5.596;2023-01-08T11:30:52;4.47;;;1.40;;
17564;SDS011;62994;52.126;5.596;2023-01-08T11:33:25;5.43;;;1.70;;
17564;SDS011;62994;52.126;5.596;2023-01-08T11:35:59;4.20;;;1.75;;
17564;SDS011;62994;52.126;5.596;2023-01-08T11:38:33;2.05;;;1.67;;
17564;SDS011;62994;52.126;5.596;2023-01-08T11:41:08;6.18;;;1.88;;
17564;SDS011;62994;52.126;5.596;2023-01-08T11:43:50;6.65;;;1.67;;
17564;SDS011;62994;52.126;5.596;2023-01-08T11:46:35;5.45;;;1.90;;
17564;SDS011;62994;52.126;5.596;2023-01-08T11:49:15;2.88;;;1.50;;
17564;SDS011;62994;52.126;5.596;2023-01-08T11:52:08;5.25;;;1.90;;
17564;SDS011;62994;52.126;5.596;2023-01-08T11:55:04;1.73;;;1.33;;
17564;SDS011;62994;52.126;5.596;2023-01-08T12:01:05;2.03;;;1.38;;
17564;SDS011;62994;52.126;5.596;2023-01-08T12:03:50;5.43;;;1.40;;
17564;SDS011;62994;52.126;5.596;2023-01-08T12:06:31;3.42;;;1.23;;
17564;SDS011;62994;52.126;5.596;2023-01-08T12:09:12;5.15;;;1.52;;
17564;SDS011;62994;52.126;5.596;2023-01-08T12:11:53;4.90;;;1.40;;
17564;SDS011;62994;52.126;5.596;2023-01-08T12:14:34;5.55;;;2.70;;
17564;SDS011;62994;52.126;5.596;2023-01-08T12:17:20;3.35;;;1.73;;
17564;SDS011;62994;52.126;5.596;2023-01-08T12:20:05;4.45;;;1.55;;
17564;SDS011;62994;52.126;5.596;2023-01-08T12:22:44;2.38;;;1.83;;
17564;SDS011;62994;52.126;5.596;2023-01-08T12:25:31;1.83;;;1.23;;
17564;SDS011;62994;52.126;5.596;2023-01-08T12:28:16;4.47;;;1.60;;
17564;SDS011;62994;52.126;5.596;2023-01-08T12:34:04;1.33;;;1.20;;
17564;SDS011;62994;52.126;5.596;2023-01-08T12:36:40;3.45;;;2.00;;
17564;SDS011;62994;52.126;5.596;2023-01-08T12:39:15;1.60;;;0.93;;
17564;SDS011;62994;52.126;5.596;2023-01-08T12:41:55;1.90;;;1.00;;
17564;SDS011;62994;52.126;5.596;2023-01-08T12:44:34;1.30;;;1.20;;
17564;SDS011;62994;52.126;5.596;2023-01-08T12:47:06;5.20;;;1.48;;
17564;SDS011;62994;52.126;5.596;2023-01-08T12:49:46;2.35;;;1.10;;
17564;SDS011;62994;52.126;5.596;2023-01-08T12:52:25;2.05;;;1.00;;
17564;SDS011;62994;52.126;5.596;2023-01-08T12:55:02;2.25;;;1.30;;
17564;SDS011;62994;52.126;5.596;2023-01-08T12:57:51;2.20;;;0.85;;
17564;SDS011;62994;52.126;5.596;2023-01-08T13:00:29;0.77;;;0.77;;
17564;SDS011;62994;52.126;5.596;2023-01-08T13:03:09;1.48;;;0.80;;
17564;SDS011;62994;52.126;5.596;2023-01-08T13:05:39;1.08;;;1.08;;
17564;SDS011;62994;52.126;5.596;2023-01-08T13:08:20;0.60;;;0.60;;
17564;SDS011;62994;52.126;5.596;2023-01-08T13:10:52;2.22;;;1.00;;
17564;SDS011;62994;52.126;5.596;2023-01-08T13:13:26;0.82;;;0.70;;
17564;SDS011;62994;52.126;5.596;2023-01-08T13:16:07;1.30;;;0.80;;
17564;SDS011;62994;52.126;5.596;2023-01-08T13:18:50;1.73;;;1.30;;
17564;SDS011;62994;52.126;5.596;2023-01-08T13:21:25;0.80;;;0.80;;
17564;SDS011;62994;52.126;5.596;2023-01-08T13:24:01;0.88;;;0.80;;
17564;SDS011;62994;52.126;5.596;2023-01-08T13:26:33;1.92;;;0.80;;
17564;SDS011;62994;52.126;5.596;2023-01-08T13:29:07;2.58;;;0.98;;
17564;SDS011;62994;52.126;5.596;2023-01-08T13:31:49;2.35;;;1.75;;
17564;SDS011;62994;52.126;5.596;2023-01-08T13:34:17;1.00;;;0.77;;
17564;SDS011;62994;52.126;5.596;2023-01-08T13:36:56;3.42;;;1.00;;
17564;SDS011;62994;52.126;5.596;2023-01-08T13:39:30;4.00;;;1.25;;
17564;SDS011;62994;52.126;5.596;2023-01-08T13:42:01;0.85;;;0.80;;
17564;SDS011;62994;52.126;5.596;2023-01-08T13:44:48;3.63;;;1.00;;
17564;SDS011;62994;52.126;5.596;2023-01-08T13:47:21;1.25;;;0.90;;
17564;SDS011;62994;52.126;5.596;2023-01-08T13:49:56;1.08;;;0.93;;
17564;SDS011;62994;52.126;5.596;2023-01-08T13:52:37;1.00;;;0.98;;
17564;SDS011;62994;52.126;5.596;2023-01-08T13:55:23;1.30;;;1.20;;
17564;SDS011;62994;52.126;5.596;2023-01-08T13:57:55;1.88;;;1.02;;
17564;SDS011;62994;52.126;5.596;2023-01-08T14:00:27;1.55;;;1.02;;
17564;SDS011;62994;52.126;5.596;2023-01-08T14:02:57;1.45;;;1.17;;
17564;SDS011;62994;52.126;5.596;2023-01-08T14:05:33;2.67;;;1.20;;
17564;SDS011;62994;52.126;5.596;2023-01-08T14:08:01;1.60;;;0.95;;
17564;SDS011;62994;52.126;5.596;2023-01-08T14:10:28;1.92;;;1.23;;
17564;SDS011;62994;52.126;5.596;2023-01-08T14:12:59;1.05;;;1.00;;
17564;SDS011;62994;52.126;5.596;2023-01-08T14:15:33;3.25;;;1.10;;
17564;SDS011;62994;52.126;5.596;2023-01-08T14:18:01;2.90;;;1.10;;
17564;SDS011;62994;52.126;5.596;2023-01-08T14:20:37;1.42;;;1.00;;
17564;SDS011;62994;52.126;5.596;2023-01-08T14:23:19;2.17;;;0.93;;
17564;SDS011;62994;52.126;5.596;2023-01-08T14:25:50;3.17;;;0.80;;
17564;SDS011;62994;52.126;5.596;2023-01-08T14:28:18;6.72;;;1.75;;
17564;SDS011;62994;52.126;5.596;2023-01-08T14:30:48;3.42;;;1.25;;
17564;SDS011;62994;52.126;5.596;2023-01-08T14:33:18;1.80;;;1.30;;
17564;SDS011;62994;52.126;5.596;2023-01-08T14:35:49;1.95;;;1.15;;
17564;SDS011;62994;52.126;5.596;2023-01-08T14:38:18;5.05;;;1.30;;
17564;SDS011;62994;52.126;5.596;2023-01-08T14:40:47;1.50;;;1.05;;
17564;SDS011;62994;52.126;5.596;2023-01-08T14:43:17;3.55;;;1.23;;
17564;SDS011;62994;52.126;5.596;2023-01-08T14:45:46;3.20;;;1.20;;
17564;SDS011;62994;52.126;5.596;2023-01-08T14:48:17;2.85;;;1.45;;
17564;SDS011;62994;52.126;5.596;2023-01-08T14:51:00;2.03;;;1.20;;
17564;SDS011;62994;52.126;5.596;2023-01-08T14:53:35;4.05;;;1.38;;
17564;SDS011;62994;52.126;5.596;2023-01-08T14:56:05;2.00;;;1.40;;
17564;SDS011;62994;52.126;5.596;2023-01-08T14:58:33;3.40;;;1.45;;
17564;SDS011;62994;52.126;5.596;2023-01-08T15:01:06;4.20;;;1.80;;
17564;SDS011;62994;52.126;5.596;2023-01-08T15:03:40;3.35;;;1.55;;
17564;SDS011;62994;52.126;5.596;2023-01-08T15:06:11;1.75;;;1.30;;
17564;SDS011;62994;52.126;5.596;2023-01-08T15:08:48;2.95;;;1.50;;
17564;SDS011;62994;52.126;5.596;2023-01-08T15:11:19;3.63;;;1.58;;
17564;SDS011;62994;52.126;5.596;2023-01-08T15:13:48;1.80;;;1.38;;
17564;SDS011;62994;52.126;5.596;2023-01-08T15:16:19;2.17;;;1.30;;
17564;SDS011;62994;52.126;5.596;2023-01-08T15:18:54;4.25;;;1.83;;